Time;durP1;ratioP1;P1;durP2;ratioP2;P2;SDS_P1;SDS_P2;PMS_P1;PMS_P2;Temp;Humidity;BMP_temperature;BMP_pressure;BME280_temperature;BME280_humidity;BME280_pressure;Samples;Min_cycle;Max_cycle;Signal;HPM_P1;HPM_P2
2021/09/15 00:00:42;;;;;;;4.78;3.20;;;20.60;68.60;;;;;;5090530;28;20035;-84
2021/09/15 00:03:08;;;;;;;5.93;3.30;;;20.70;68.30;;;;;;5089810;28;20545;-84
2021/09/15 00:05:33;;;;;;;4.70;3.50;;;20.60;68.20;;;;;;5089010;28;20059;-83
2021/09/15 00:07:59;;;;;;;5.25;3.45;;;20.60;68.10;;;;;;5090574;28;20024;-84
2021/09/15 00:10:24;;;;;;;4.13;3.22;;;20.60;68.10;;;;;;5090745;28;20036;-85
2021/09/15 00:12:50;;;;;;;11.35;3.53;;;20.60;68.00;;;;;;5090900;28;20020;-84
2021/09/15 00:15:16;;;;;;;5.65;3.38;;;20.60;68.00;;;;;;5090573;28;20023;-84
2021/09/15 00:17:42;;;;;;;7.40;3.42;;;20.70;67.70;;;;;;5090423;28;20032;-84
2021/09/15 00:20:09;;;;;;;4.65;2.90;;;20.60;67.70;;;;;;5087763;28;20028;-84
2021/09/15 00:22:35;;;;;;;10.60;3.08;;;20.70;67.50;;;;;;5090000;28;20031;-84
2021/09/15 00:25:01;;;;;;;5.10;2.95;;;20.70;67.10;;;;;;5090110;28;20056;-85
2021/09/15 00:27:26;;;;;;;5.85;3.30;;;20.70;67.00;;;;;;5088221;28;20685;-82
2021/09/15 00:29:52;;;;;;;6.07;3.40;;;20.70;66.60;;;;;;5087637;28;20116;-82
2021/09/15 00:32:18;;;;;;;4.25;2.83;;;20.70;66.40;;;;;;5089794;28;20028;-81
2021/09/15 00:34:44;;;;;;;4.35;3.30;;;20.80;66.10;;;;;;5089043;28;20020;-82
2021/09/15 00:37:10;;;;;;;7.50;3.60;;;20.80;65.90;;;;;;5088797;28;20510;-81
2021/09/15 00:39:36;;;;;;;5.20;3.28;;;20.80;65.70;;;;;;5088876;28;20028;-81
2021/09/15 00:42:01;;;;;;;7.18;3.70;;;20.80;65.70;;;;;;5089277;28;20541;-82
2021/09/15 00:44:27;;;;;;;3.72;3.10;;;20.80;65.60;;;;;;5089773;28;20800;-81
2021/09/15 00:46:53;;;;;;;6.35;3.13;;;20.80;65.30;;;;;;5087232;28;20085;-80
2021/09/15 00:49:18;;;;;;;5.05;3.05;;;20.80;65.10;;;;;;5087727;28;20074;-79
2021/09/15 00:51:44;;;;;;;4.43;3.10;;;20.80;65.20;;;;;;5086901;28;20028;-79
2021/09/15 00:54:12;;;;;;;8.85;3.30;;;20.70;65.20;;;;;;5088056;28;20103;-79
2021/09/15 00:56:38;;;;;;;5.93;3.70;;;20.70;65.20;;;;;;5088431;28;20031;-81
2021/09/15 00:59:04;;;;;;;5.10;3.70;;;20.70;65.20;;;;;;5087795;28;20020;-81
2021/09/15 01:01:30;;;;;;;4.57;2.95;;;20.60;65.40;;;;;;5088578;28;20574;-82
2021/09/15 01:03:56;;;;;;;4.63;3.20;;;20.60;65.30;;;;;;5089171;28;20039;-80
2021/09/15 01:06:22;;;;;;;8.73;3.35;;;20.60;65.30;;;;;;5087167;28;20056;-80
2021/09/15 01:08:48;;;;;;;5.22;3.20;;;20.60;65.20;;;;;;5086746;28;20052;-80
2021/09/15 01:11:15;;;;;;;5.85;3.25;;;20.70;64.90;;;;;;5087141;28;20040;-79
2021/09/15 01:13:41;;;;;;;5.07;3.20;;;20.80;64.40;;;;;;5087360;28;20028;-81
2021/09/15 01:16:08;;;;;;;5.63;3.55;;;20.80;64.50;;;;;;5088471;28;20027;-81
2021/09/15 01:18:33;;;;;;;5.35;3.13;;;20.70;64.80;;;;;;5086697;28;20028;-80
2021/09/15 01:20:59;;;;;;;7.50;3.75;;;20.50;65.20;;;;;;5088055;28;20068;-81
2021/09/15 01:23:25;;;;;;;8.00;3.67;;;20.40;65.60;;;;;;5090585;28;20032;-81
2021/09/15 01:25:52;;;;;;;4.60;3.00;;;20.30;65.90;;;;;;5087979;28;20020;-80
2021/09/15 01:28:18;;;;;;;7.05;3.63;;;20.30;66.10;;;;;;5086337;28;20029;-82
2021/09/15 01:30:44;;;;;;;7.55;3.70;;;20.20;66.40;;;;;;5086920;28;20039;-79
2021/09/15 01:33:15;;;;;;;5.53;3.28;;;20.10;66.50;;;;;;5088459;28;20465;-80
2021/09/15 01:35:42;;;;;;;5.28;3.42;;;20.10;66.90;;;;;;5087658;28;20032;-81
2021/09/15 01:38:08;;;;;;;5.38;3.78;;;20.00;67.20;;;;;;5088190;28;20400;-81
2021/09/15 01:40:34;;;;;;;4.35;2.97;;;20.00;67.40;;;;;;5086586;28;20028;-79
2021/09/15 01:43:00;;;;;;;4.90;2.92;;;19.90;67.70;;;;;;5086772;28;20035;-78
2021/09/15 01:45:26;;;;;;;5.93;4.10;;;19.90;68.00;;;;;;5086976;28;20452;-79
2021/09/15 01:47:52;;;;;;;8.52;3.13;;;19.80;68.10;;;;;;5087944;28;20024;-81
2021/09/15 01:50:18;;;;;;;5.03;3.25;;;19.80;68.20;;;;;;5089407;28;20036;-82
2021/09/15 01:52:44;;;;;;;5.30;2.97;;;19.80;68.40;;;;;;5087679;28;20024;-80
2021/09/15 01:55:23;;;;;;;4.82;3.42;;;19.80;68.60;;;;;;5085570;28;20024;-79
2021/09/15 01:57:49;;;;;;;9.27;3.30;;;19.90;68.60;;;;;;5085552;28;20028;-82
2021/09/15 02:00:15;;;;;;;6.63;3.45;;;19.90;68.50;;;;;;5087143;28;20389;-81
2021/09/15 02:02:41;;;;;;;6.55;3.38;;;19.90;68.60;;;;;;5087438;28;20046;-81
2021/09/15 02:05:07;;;;;;;4.07;3.15;;;19.80;68.80;;;;;;5087627;28;20070;-81
2021/09/15 02:07:33;;;;;;;4.63;3.03;;;19.80;69.10;;;;;;5087512;28;20577;-81
2021/09/15 02:09:59;;;;;;;4.75;2.75;;;19.70;69.40;;;;;;5085962;28;20055;-82
2021/09/15 02:12:24;;;;;;;5.25;3.42;;;19.60;69.90;;;;;;5087211;28;20095;-80
2021/09/15 02:14:50;;;;;;;5.28;3.67;;;19.50;70.70;;;;;;5088029;28;20081;-81
2021/09/15 02:17:15;;;;;;;8.32;3.67;;;19.40;71.40;;;;;;5085480;28;20031;-80
2021/09/15 02:19:41;;;;;;;7.20;3.63;;;19.30;71.60;;;;;;5087644;28;20115;-82
2021/09/15 02:22:07;;;;;;;6.47;3.50;;;19.30;72.20;;;;;;5086197;28;20169;-81
2021/09/15 02:24:32;;;;;;;4.82;3.78;;;19.20;72.50;;;;;;5086200;28;20525;-82
2021/09/15 02:26:58;;;;;;;7.82;3.40;;;19.20;72.70;;;;;;5087181;28;20439;-82
2021/09/15 02:29:24;;;;;;;7.43;3.90;;;19.10;72.70;;;;;;5087203;28;20028;-80
2021/09/15 02:31:50;;;;;;;4.95;3.65;;;19.10;73.00;;;;;;5087591;28;20099;-81
2021/09/15 02:34:15;;;;;;;8.00;3.65;;;19.10;73.10;;;;;;5085242;28;20028;-81
2021/09/15 02:36:41;;;;;;;9.57;5.20;;;19.10;73.00;;;;;;5087647;28;20024;-80
2021/09/15 02:39:07;;;;;;;5.35;3.72;;;19.10;73.00;;;;;;5087461;28;20024;-80
2021/09/15 02:41:32;;;;;;;6.05;3.85;;;19.20;73.10;;;;;;5085647;28;20458;-81
2021/09/15 02:43:58;;;;;;;10.77;3.53;;;19.20;72.70;;;;;;5087197;28;20454;-79
2021/09/15 02:46:24;;;;;;;6.85;3.70;;;19.20;72.60;;;;;;5087341;28;20373;-82
2021/09/15 02:48:49;;;;;;;4.88;3.30;;;19.30;72.50;;;;;;5085691;28;20032;-82
2021/09/15 02:51:15;;;;;;;4.30;3.65;;;19.30;72.50;;;;;;5087164;28;20114;-81
2021/09/15 02:53:41;;;;;;;4.35;3.65;;;19.30;73.20;;;;;;5087227;28;20515;-80
2021/09/15 02:56:06;;;;;;;5.22;3.42;;;19.20;74.00;;;;;;5085863;28;20107;-81
2021/09/15 02:58:32;;;;;;;10.27;3.67;;;19.10;74.50;;;;;;5087300;28;20476;-82
2021/09/15 03:00:58;;;;;;;5.50;3.40;;;19.00;75.00;;;;;;5087160;28;20028;-80
2021/09/15 03:03:24;;;;;;;6.55;4.38;;;18.90;76.00;;;;;;5086130;28;20034;-80
2021/09/15 03:05:49;;;;;;;9.48;5.30;;;18.80;77.20;;;;;;5086272;28;20063;-80
2021/09/15 03:08:15;;;;;;;8.13;5.40;;;18.70;78.50;;;;;;5085397;28;20510;-82
2021/09/15 03:10:41;;;;;;;8.70;5.78;;;18.60;79.60;;;;;;5086111;28;20052;-81
2021/09/15 03:13:06;;;;;;;11.88;8.90;;;18.50;80.40;;;;;;5087063;28;20023;-81
2021/09/15 03:15:32;;;;;;;19.55;10.38;;;18.40;81.00;;;;;;5086258;28;20096;-81
2021/09/15 03:17:58;;;;;;;14.75;10.70;;;18.30;81.40;;;;;;5086925;28;20511;-82
2021/09/15 03:20:23;;;;;;;8.25;5.07;;;18.30;82.20;;;;;;5085606;28;20030;-82
2021/09/15 03:22:49;;;;;;;6.78;4.20;;;18.20;81.30;;;;;;5086670;28;20032;-83
2021/09/15 03:25:15;;;;;;;9.05;3.85;;;18.40;79.60;;;;;;5087716;28;20024;-81
2021/09/15 03:27:40;;;;;;;6.40;4.10;;;18.60;77.70;;;;;;5087060;28;20028;-82
2021/09/15 03:30:07;;;;;;;8.63;3.53;;;18.90;76.60;;;;;;5088601;28;20028;-83
2021/09/15 03:32:33;;;;;;;3.75;3.20;;;18.90;76.10;;;;;;5091880;28;20025;-83
2021/09/15 03:34:59;;;;;;;4.60;3.20;;;18.90;76.20;;;;;;5090554;28;20035;-83
2021/09/15 03:37:25;;;;;;;6.28;3.75;;;18.80;76.20;;;;;;5091285;28;20028;-83
2021/09/15 03:39:51;;;;;;;9.98;3.90;;;18.80;76.30;;;;;;5090348;28;20036;-81
2021/09/15 03:42:16;;;;;;;5.43;3.80;;;18.80;76.40;;;;;;5089845;28;20024;-82
2021/09/15 03:44:42;;;;;;;10.73;4.53;;;18.70;76.30;;;;;;5089138;28;20028;-83
2021/09/15 03:47:08;;;;;;;11.15;3.80;;;18.70;76.50;;;;;;5089827;28;20025;-80
2021/09/15 03:49:33;;;;;;;8.50;3.20;;;18.70;76.50;;;;;;5089855;28;20060;-82
2021/09/15 03:51:59;;;;;;;4.80;3.55;;;18.60;76.60;;;;;;5090981;28;20058;-82
2021/09/15 03:54:25;;;;;;;5.45;3.90;;;18.60;76.80;;;;;;5091173;28;20572;-81
2021/09/15 03:56:50;;;;;;;5.53;4.20;;;18.60;77.50;;;;;;5089846;28;20028;-83
2021/09/15 03:59:16;;;;;;;5.90;3.80;;;18.60;78.00;;;;;;5089736;28;20081;-81
2021/09/15 04:01:42;;;;;;;7.47;3.95;;;18.50;78.60;;;;;;5089049;28;20128;-82
2021/09/15 04:04:07;;;;;;;5.45;3.63;;;18.50;78.50;;;;;;5088207;28;20225;-79
2021/09/15 04:06:33;;;;;;;6.55;4.05;;;18.50;78.10;;;;;;5090512;28;20028;-82
2021/09/15 04:08:59;;;;;;;7.45;3.80;;;18.60;77.70;;;;;;5089804;28;20089;-81
2021/09/15 04:11:24;;;;;;;7.40;3.80;;;18.60;78.10;;;;;;5090882;28;20039;-83
2021/09/15 04:13:50;;;;;;;4.55;3.35;;;18.70;77.90;;;;;;5091106;28;20052;-83
2021/09/15 04:16:15;;;;;;;7.90;4.30;;;18.60;77.80;;;;;;5090849;28;20489;-83
2021/09/15 04:18:41;;;;;;;5.55;3.45;;;18.70;77.90;;;;;;5091074;28;20493;-82
2021/09/15 04:21:07;;;;;;;10.82;4.25;;;18.80;77.80;;;;;;5089724;28;20024;-81
2021/09/15 04:31:27;;;;;;;6.55;4.28;;;18.80;78.10;;;;;;5089641;28;20507;-81
2021/09/15 04:33:55;;;;;;;7.10;4.28;;;18.80;78.10;;;;;;5087862;28;20024;-82
2021/09/15 04:36:21;;;;;;;8.52;4.13;;;18.80;78.30;;;;;;5089681;28;20221;-81
2021/09/15 04:38:48;;;;;;;6.70;4.30;;;18.80;78.20;;;;;;5086758;28;20020;-81
2021/09/15 04:41:14;;;;;;;5.93;4.00;;;18.80;78.60;;;;;;5087745;28;20032;-83
2021/09/15 04:43:40;;;;;;;6.18;4.60;;;18.70;78.80;;;;;;5088371;28;20031;-81
2021/09/15 04:46:06;;;;;;;8.18;4.85;;;18.70;79.10;;;;;;5088920;28;20031;-79
2021/09/15 04:48:32;;;;;;;4.60;3.60;;;18.70;79.60;;;;;;5088370;28;20032;-82
2021/09/15 04:50:58;;;;;;;6.13;4.20;;;18.70;79.50;;;;;;5088269;28;20386;-81
2021/09/15 04:53:23;;;;;;;4.75;3.70;;;18.70;79.30;;;;;;5089256;28;20031;-80
2021/09/15 04:55:49;;;;;;;7.80;5.07;;;18.80;79.10;;;;;;5088725;28;20028;-81
2021/09/15 04:58:15;;;;;;;5.00;4.13;;;18.90;78.80;;;;;;5088707;28;20570;-82
2021/09/15 05:00:41;;;;;;;11.20;4.07;;;18.90;78.80;;;;;;5088900;28;20029;-80
2021/09/15 05:03:07;;;;;;;6.82;4.43;;;18.80;78.70;;;;;;5088907;28;20043;-81
2021/09/15 05:05:32;;;;;;;7.07;4.10;;;18.80;78.70;;;;;;5087761;28;20032;-80
2021/09/15 05:07:58;;;;;;;8.38;3.78;;;18.90;78.80;;;;;;5088560;28;20054;-80
2021/09/15 05:10:26;;;;;;;11.63;4.03;;;18.90;78.80;;;;;;5087533;28;20059;-81
2021/09/15 05:12:56;;;;;;;4.75;4.00;;;18.90;78.80;;;;;;5087159;28;20027;-82
2021/09/15 05:15:23;;;;;;;12.88;4.40;;;18.90;78.90;;;;;;5087100;28;20038;-81
2021/09/15 05:17:49;;;;;;;9.32;5.07;;;19.00;79.30;;;;;;5086310;28;20032;-80
2021/09/15 05:20:18;;;;;;;6.05;3.50;;;19.10;79.40;;;;;;5088493;28;20035;-81
2021/09/15 05:22:50;;;;;;;5.15;3.65;;;19.20;79.20;;;;;;5088263;28;20036;-80
2021/09/15 05:25:17;;;;;;;9.35;4.00;;;19.30;78.90;;;;;;5087640;28;20516;-81
2021/09/15 05:27:43;;;;;;;7.63;3.97;;;19.40;78.90;;;;;;5087562;28;20044;-79
2021/09/15 05:30:09;;;;;;;6.35;3.53;;;19.70;77.90;;;;;;5087573;28;20093;-82
2021/09/15 05:32:36;;;;;;;5.35;4.43;;;20.10;76.80;;;;;;5086377;28;20400;-80
2021/09/15 05:35:03;;;;;;;10.07;4.35;;;20.50;75.60;;;;;;5088038;28;20031;-81
2021/09/15 05:37:30;;;;;;;6.70;4.85;;;21.00;73.90;;;;;;5087177;28;20550;-82
2021/09/15 05:39:55;;;;;;;6.05;4.50;;;21.30;72.80;;;;;;5087069;28;20020;-82
2021/09/15 05:42:21;;;;;;;7.60;4.50;;;21.60;72.40;;;;;;5087149;28;20020;-81
2021/09/15 05:44:47;;;;;;;11.93;4.93;;;21.80;71.10;;;;;;5086237;28;20354;-81
2021/09/15 05:47:12;;;;;;;6.05;4.53;;;22.00;70.20;;;;;;5086959;28;20097;-80
2021/09/15 05:49:38;;;;;;;7.97;4.63;;;22.20;69.50;;;;;;5085990;28;20020;-81
2021/09/15 05:52:04;;;;;;;6.13;4.15;;;22.00;70.10;;;;;;5086737;28;20063;-80
2021/09/15 05:54:30;;;;;;;7.18;4.18;;;22.10;69.80;;;;;;5086232;28;20020;-81
2021/09/15 05:56:55;;;;;;;6.93;4.82;;;22.20;69.60;;;;;;5087131;28;20739;-81
2021/09/15 05:59:21;;;;;;;10.50;5.10;;;22.00;70.20;;;;;;5086269;28;20073;-80
2021/09/15 06:01:47;;;;;;;6.80;4.32;;;21.90;71.50;;;;;;5085781;28;20020;-80
2021/09/15 06:04:12;;;;;;;7.10;4.32;;;21.90;70.90;;;;;;5086615;28;20024;-81
2021/09/15 06:06:38;;;;;;;6.13;4.32;;;21.80;71.00;;;;;;5086902;28;20021;-79
2021/09/15 06:09:04;;;;;;;7.95;4.43;;;22.00;70.90;;;;;;5084833;28;20051;-80
2021/09/15 06:11:31;;;;;;;7.55;4.40;;;22.10;70.60;;;;;;5087142;28;20055;-81
2021/09/15 06:13:57;;;;;;;7.95;4.55;;;22.40;69.50;;;;;;5086685;28;20020;-80
2021/09/15 06:16:23;;;;;;;7.00;4.20;;;22.80;68.10;;;;;;5085106;28;20047;-80
2021/09/15 06:18:49;;;;;;;12.65;4.30;;;23.10;68.20;;;;;;5085268;28;20070;-81
2021/09/15 06:21:14;;;;;;;6.10;4.68;;;23.30;66.90;;;;;;5085849;28;20028;-81
2021/09/15 06:23:41;;;;;;;5.85;3.97;;;23.50;65.90;;;;;;5086236;28;20148;-81
2021/09/15 06:26:07;;;;;;;6.28;3.80;;;24.00;65.00;;;;;;5085664;28;20020;-81
2021/09/15 06:28:32;;;;;;;6.82;4.05;;;24.30;63.70;;;;;;5085632;28;20032;-81
2021/09/15 06:31:00;;;;;;;8.43;4.40;;;24.90;62.20;;;;;;5084909;28;20488;-79
2021/09/15 06:33:26;;;;;;;4.10;3.67;;;25.20;60.80;;;;;;5086504;28;20191;-81
2021/09/15 06:35:52;;;;;;;8.05;4.68;;;25.60;59.40;;;;;;5084389;28;20497;-81
2021/09/15 06:38:18;;;;;;;6.68;4.30;;;26.10;57.50;;;;;;5086285;28;20028;-80
2021/09/15 06:40:44;;;;;;;14.02;4.50;;;26.50;57.10;;;;;;5085319;28;20032;-80
2021/09/15 06:43:10;;;;;;;7.18;3.88;;;26.60;56.00;;;;;;5085394;28;20028;-80
2021/09/15 06:45:36;;;;;;;10.20;4.03;;;27.10;54.50;;;;;;5086182;28;20107;-81
2021/09/15 06:48:02;;;;;;;5.00;3.78;;;27.40;53.60;;;;;;5085472;28;20291;-81
2021/09/15 06:50:28;;;;;;;5.22;4.03;;;27.30;53.40;;;;;;5085067;28;20167;-81
2021/09/15 06:52:53;;;;;;;6.90;4.35;;;27.30;53.40;;;;;;5086142;28;20512;-81
2021/09/15 06:55:19;;;;;;;6.13;4.05;;;27.30;52.30;;;;;;5085903;28;20515;-82
2021/09/15 06:57:45;;;;;;;8.00;4.15;;;27.60;52.20;;;;;;5086212;28;20028;-82
2021/09/15 07:00:11;;;;;;;6.30;4.30;;;27.60;52.20;;;;;;5085933;28;20035;-82
2021/09/15 07:02:37;;;;;;;5.50;3.63;;;27.80;51.90;;;;;;5086429;28;20032;-81
2021/09/15 07:05:03;;;;;;;12.20;4.32;;;27.80;51.40;;;;;;5089261;28;20024;-81
2021/09/15 07:07:29;;;;;;;5.70;4.68;;;27.70;51.70;;;;;;5087986;28;20113;-80
2021/09/15 07:09:55;;;;;;;7.28;4.25;;;28.10;51.20;;;;;;5088698;28;20093;-81
2021/09/15 07:12:22;;;;;;;7.63;4.47;;;28.30;51.00;;;;;;5088978;28;20548;-81
2021/09/15 07:14:47;;;;;;;6.20;4.03;;;28.30;50.10;;;;;;5088308;28;20054;-81
2021/09/15 07:17:13;;;;;;;9.15;4.15;;;28.30;50.00;;;;;;5088540;28;20285;-80
2021/09/15 07:19:39;;;;;;;9.68;4.38;;;28.20;50.00;;;;;;5089900;28;20028;-81
2021/09/15 07:22:04;;;;;;;16.00;4.72;;;28.60;50.10;;;;;;5088505;28;20035;-81
2021/09/15 07:24:30;;;;;;;4.95;3.53;;;28.80;49.30;;;;;;5089478;28;20522;-81
2021/09/15 07:26:56;;;;;;;6.03;3.90;;;29.30;47.90;;;;;;5089797;28;20030;-80
2021/09/15 07:29:22;;;;;;;13.57;3.92;;;29.20;47.80;;;;;;5088303;28;20028;-80
2021/09/15 07:31:47;;;;;;;8.50;3.60;;;29.30;47.70;;;;;;5089451;28;20036;-80
2021/09/15 07:34:13;;;;;;;5.43;3.80;;;29.60;47.70;;;;;;5089674;28;20400;-82
2021/09/15 07:36:41;;;;;;;5.90;3.80;;;29.80;46.40;;;;;;5089593;28;20542;-80
2021/09/15 07:39:07;;;;;;;8.65;4.10;;;30.10;45.80;;;;;;5089082;28;20408;-81
2021/09/15 07:41:33;;;;;;;6.20;4.03;;;30.40;45.60;;;;;;5087606;28;20024;-82
2021/09/15 07:44:00;;;;;;;5.40;4.18;;;30.20;45.50;;;;;;5089315;28;20099;-81
2021/09/15 07:46:25;;;;;;;7.28;4.63;;;30.30;45.40;;;;;;5089496;28;20030;-81
2021/09/15 07:48:52;;;;;;;6.80;4.13;;;30.70;44.60;;;;;;5089497;28;20102;-81
2021/09/15 07:51:19;;;;;;;6.55;3.75;;;30.70;44.30;;;;;;5089309;28;20127;-81
2021/09/15 07:53:45;;;;;;;5.13;3.88;;;30.80;44.40;;;;;;5088310;28;20028;-81
2021/09/15 07:56:11;;;;;;;8.85;4.45;;;31.00;44.10;;;;;;5089165;28;20050;-82
2021/09/15 07:58:37;;;;;;;11.70;5.35;;;31.10;44.10;;;;;;5089423;28;20031;-80
2021/09/15 08:01:03;;;;;;;8.00;4.13;;;30.70;44.10;;;;;;5089194;28;20485;-81
2021/09/15 08:03:28;;;;;;;7.88;4.43;;;30.10;45.50;;;;;;5088916;28;20027;-81
2021/09/15 08:05:55;;;;;;;9.68;4.85;;;30.10;46.00;;;;;;5089023;28;20036;-81
2021/09/15 08:08:21;;;;;;;9.82;4.50;;;30.30;45.40;;;;;;5088714;28;20082;-82
2021/09/15 08:10:47;;;;;;;9.75;4.32;;;30.40;45.00;;;;;;5088780;28;20044;-81
2021/09/15 08:13:12;;;;;;;5.38;4.03;;;30.60;45.20;;;;;;5086819;28;20082;-80
2021/09/15 08:15:38;;;;;;;8.02;4.07;;;31.00;44.70;;;;;;5087961;28;20074;-81
2021/09/15 08:18:04;;;;;;;10.05;5.18;;;31.30;44.10;;;;;;5087684;28;20570;-80
2021/09/15 08:20:30;;;;;;;4.95;4.22;;;31.20;43.80;;;;;;5086549;28;20024;-79
2021/09/15 08:22:55;;;;;;;6.55;4.38;;;31.00;44.20;;;;;;5088065;28;20035;-81
2021/09/15 08:25:22;;;;;;;5.65;3.78;;;31.00;44.70;;;;;;5088835;28;20024;-80
2021/09/15 08:27:48;;;;;;;5.93;4.10;;;31.10;44.00;;;;;;5088328;28;20028;-80
2021/09/15 08:30:14;;;;;;;6.65;4.82;;;31.30;43.40;;;;;;5084679;28;20032;-80
2021/09/15 08:32:40;;;;;;;9.35;4.43;;;31.60;43.90;;;;;;5086384;28;20105;-80
2021/09/15 08:35:06;;;;;;;10.02;4.78;;;31.50;43.80;;;;;;5087470;28;20067;-79
2021/09/15 08:37:34;;;;;;;8.43;4.32;;;31.20;43.60;;;;;;5085323;28;20036;-80
2021/09/15 08:40:00;;;;;;;5.88;4.20;;;31.10;44.20;;;;;;5080100;28;20036;-80
2021/09/15 08:42:26;;;;;;;7.78;3.88;;;31.30;44.40;;;;;;5084963;28;20036;-80
2021/09/15 08:44:51;;;;;;;8.15;4.45;;;31.50;44.00;;;;;;5083063;28;20036;-80
2021/09/15 08:47:19;;;;;;;9.43;4.15;;;31.80;43.50;;;;;;5082993;28;20087;-80
2021/09/15 08:49:46;;;;;;;6.80;4.63;;;32.10;43.20;;;;;;5085537;28;20028;-81
2021/09/15 08:52:11;;;;;;;10.15;4.70;;;32.00;43.10;;;;;;5083530;28;20517;-81
2021/09/15 08:54:37;;;;;;;13.18;4.80;;;32.20;42.70;;;;;;5087395;28;20032;-81
2021/09/15 08:57:03;;;;;;;10.27;4.53;;;32.20;42.70;;;;;;5082644;28;20050;-79
2021/09/15 08:59:28;;;;;;;10.00;4.55;;;32.10;42.40;;;;;;5084202;28;20032;-80
2021/09/15 09:02:11;;;;;;;11.30;4.97;;;31.70;42.90;;;;;;5086581;28;20062;-80
2021/09/15 09:04:49;;;;;;;14.15;5.15;;;32.10;42.40;;;;;;5082969;28;20085;-79
2021/09/15 09:07:15;;;;;;;14.00;4.43;;;32.30;42.20;;;;;;5086210;28;20416;-79
2021/09/15 09:09:48;;;;;;;10.73;4.13;;;32.50;41.70;;;;;;5084877;28;20060;-79
2021/09/15 09:12:15;;;;;;;9.07;4.30;;;32.50;41.50;;;;;;5086880;28;20046;-80
2021/09/15 09:14:41;;;;;;;9.35;4.55;;;32.70;41.50;;;;;;5084958;28;20119;-79
2021/09/15 09:17:07;;;;;;;5.95;4.03;;;32.90;41.10;;;;;;5086294;28;20936;-80
2021/09/15 09:19:33;;;;;;;10.82;3.85;;;33.10;41.40;;;;;;5086682;28;20040;-80
2021/09/15 09:22:00;;;;;;;6.32;4.05;;;33.40;40.30;;;;;;5086369;28;20032;-80
2021/09/15 09:24:27;;;;;;;6.57;3.45;;;33.80;38.80;;;;;;5084891;28;20043;-77
2021/09/15 09:26:57;;;;;;;7.50;3.90;;;34.00;39.10;;;;;;5079970;28;20038;-78
2021/09/15 09:29:27;;;;;;;12.13;3.75;;;34.30;37.90;;;;;;5083188;28;20030;-79
2021/09/15 09:32:08;;;;;;;11.50;3.80;;;34.30;38.20;;;;;;5086500;28;20039;-79
2021/09/15 09:34:50;;;;;;;5.15;3.60;;;34.10;38.00;;;;;;5081121;28;20032;-78
2021/09/15 09:37:19;;;;;;;7.75;3.95;;;34.00;37.80;;;;;;5084498;28;20485;-79
2021/09/15 09:39:55;;;;;;;7.25;3.80;;;33.60;39.00;;;;;;5072300;28;20037;-78
2021/09/15 09:42:23;;;;;;;6.28;3.72;;;33.80;38.90;;;;;;5086365;28;20115;-78
2021/09/15 09:45:04;;;;;;;10.05;3.53;;;33.80;38.30;;;;;;5082850;28;20217;-79
2021/09/15 09:47:31;;;;;;;7.82;3.60;;;33.80;38.70;;;;;;5085969;28;20044;-78
2021/09/15 09:50:10;;;;;;;13.98;3.83;;;33.80;38.20;;;;;;5081793;28;20036;-78
2021/09/15 09:52:57;;;;;;;8.48;3.60;;;33.80;38.30;;;;;;5080809;28;20035;-80
2021/09/15 09:55:23;;;;;;;11.23;3.75;;;33.80;39.20;;;;;;5081396;28;20083;-81
2021/09/15 09:57:52;;;;;;;5.60;3.97;;;33.70;38.50;;;;;;5080734;28;20070;-80
2021/09/15 10:00:19;;;;;;;12.80;4.07;;;33.60;38.70;;;;;;5083189;28;20032;-79
2021/09/15 10:02:46;;;;;;;6.13;3.90;;;33.40;39.10;;;;;;5084084;28;20038;-78
2021/09/15 10:05:14;;;;;;;11.75;4.13;;;33.60;38.40;;;;;;5079990;28;20032;-79
2021/09/15 10:07:41;;;;;;;6.15;3.78;;;33.40;39.00;;;;;;5080799;28;20418;-79
2021/09/15 10:10:11;;;;;;;9.65;4.20;;;33.10;39.70;;;;;;5082256;28;20045;-78
2021/09/15 10:12:36;;;;;;;5.47;3.95;;;32.90;40.20;;;;;;5081386;28;20416;-79
2021/09/15 10:15:02;;;;;;;6.25;4.00;;;32.80;39.50;;;;;;5085746;28;20036;-79
2021/09/15 10:17:30;;;;;;;20.80;4.57;;;32.30;40.60;;;;;;5082709;28;20131;-79
2021/09/15 10:19:57;;;;;;;13.52;5.05;;;31.90;41.60;;;;;;5085669;28;20036;-78
2021/09/15 10:22:34;;;;;;;9.23;4.07;;;31.90;42.50;;;;;;5080513;28;20041;-79
2021/09/15 10:25:02;;;;;;;6.30;4.43;;;31.90;42.00;;;;;;5085227;28;20199;-80
2021/09/15 10:28:01;;;;;;;7.75;3.80;;;31.40;42.60;;;;;;5080973;28;20047;-79
2021/09/15 10:30:44;;;;;;;8.95;4.20;;;31.10;42.80;;;;;;5081057;28;20039;-79
2021/09/15 10:33:35;;;;;;;14.32;4.55;;;31.00;43.40;;;;;;5081663;28;20058;-80
2021/09/15 10:36:10;;;;;;;7.13;4.00;;;30.80;43.60;;;;;;5078211;28;20052;-81
2021/09/15 10:38:59;;;;;;;5.22;3.53;;;30.60;43.50;;;;;;5085980;28;20043;-80
2021/09/15 10:41:30;;;;;;;8.02;4.22;;;30.40;44.30;;;;;;5087466;28;20158;-81
2021/09/15 10:44:06;;;;;;;6.78;3.90;;;30.40;44.30;;;;;;5088893;28;20122;-81
2021/09/15 10:46:32;;;;;;;;;;;30.30;44.70;;;;;;5089301;28;20116;-80
2021/09/15 10:49:23;;;;;;;9.73;4.20;;;30.20;45.10;;;;;;5085413;28;20372;-81
2021/09/15 10:52:07;;;;;;;9.70;4.55;;;30.20;45.10;;;;;;5083716;28;20040;-81
2021/09/15 10:54:53;;;;;;;8.32;4.57;;;30.30;44.80;;;;;;5089259;28;20405;-80
2021/09/15 10:57:23;;;;;;;7.55;3.83;;;30.10;45.40;;;;;;5105261;28;20040;-81
2021/09/15 10:59:54;;;;;;;5.90;3.85;;;30.10;45.60;;;;;;5085634;28;20139;-81
2021/09/15 11:02:22;;;;;;;5.20;3.67;;;30.10;45.60;;;;;;5082327;28;20047;-81
2021/09/15 11:04:48;;;;;;;6.80;4.30;;;30.20;45.20;;;;;;5089079;28;20132;-80
2021/09/15 11:07:46;;;;;;;7.47;4.25;;;30.10;45.50;;;;;;5083290;28;20064;-81
2021/09/15 11:10:34;;;;;;;6.93;4.38;;;30.20;45.10;;;;;;5088657;28;20063;-79
2021/09/15 11:13:08;;;;;;;7.95;4.05;;;30.10;45.20;;;;;;5079636;28;20041;-80
2021/09/15 11:15:36;;;;;;;4.95;4.22;;;30.10;45.60;;;;;;5082064;28;20059;-80
2021/09/15 11:18:03;;;;;;;10.65;3.65;;;30.10;45.60;;;;;;5084552;28;20062;-81
2021/09/15 11:20:32;;;;;;;13.85;4.15;;;30.20;45.80;;;;;;5083318;28;20044;-81
2021/09/15 11:23:08;;;;;;;11.20;3.50;;;30.20;45.60;;;;;;5085356;28;20416;-80
2021/09/15 11:25:35;;;;;;;6.32;4.10;;;30.50;45.60;;;;;;5086353;28;20032;-82
2021/09/15 11:28:13;;;;;;;8.48;3.95;;;30.60;44.80;;;;;;5086797;28;20049;-81
2021/09/15 11:30:40;;;;;;;5.25;3.58;;;30.50;44.70;;;;;;5087132;28;20037;-80
2021/09/15 11:33:06;;;;;;;4.93;3.83;;;30.60;45.10;;;;;;5084412;28;20036;-80
2021/09/15 11:35:37;;;;;;;5.38;3.75;;;30.70;44.90;;;;;;5083149;28;20043;-82
2021/09/15 11:38:05;;;;;;;12.30;4.18;;;30.40;44.20;;;;;;5089959;28;20059;-80
2021/09/15 11:40:32;;;;;;;6.43;3.55;;;30.30;44.40;;;;;;5089549;28;20020;-80
2021/09/15 11:43:06;;;;;;;5.05;3.58;;;30.20;44.80;;;;;;5089318;28;20101;-80
2021/09/15 11:45:34;;;;;;;9.07;4.13;;;30.10;45.00;;;;;;5089110;28;20028;-82
2021/09/15 11:48:00;;;;;;;17.33;4.15;;;29.80;45.10;;;;;;5089683;28;20035;-80
2021/09/15 11:50:31;;;;;;;14.80;4.72;;;29.60;45.60;;;;;;5086716;28;20036;-77
2021/09/15 11:53:11;;;;;;;5.43;4.18;;;29.50;45.90;;;;;;5088024;28;20042;-78
2021/09/15 11:55:42;;;;;;;6.75;3.20;;;29.30;46.40;;;;;;5088753;28;20119;-80
2021/09/15 11:58:08;;;;;;;5.22;3.75;;;29.10;46.50;;;;;;5086070;28;20564;-84
2021/09/15 12:00:34;;;;;;;8.32;4.50;;;29.20;46.90;;;;;;5086391;28;20573;-82
2021/09/15 12:03:04;;;;;;;9.90;4.00;;;29.40;46.30;;;;;;5089025;28;20024;-81
2021/09/15 12:05:30;;;;;;;10.52;4.22;;;29.30;46.90;;;;;;5088482;28;20035;-81
2021/09/15 12:07:57;;;;;;;8.68;3.72;;;29.40;47.60;;;;;;5088052;28;20035;-82
2021/09/15 12:10:25;;;;;;;6.18;3.35;;;29.50;47.00;;;;;;5089222;28;20080;-82
2021/09/15 12:12:51;;;;;;;9.57;3.13;;;29.70;45.80;;;;;;5088816;28;20051;-81
2021/09/15 12:15:18;;;;;;;4.93;3.63;;;29.80;45.00;;;;;;5089231;28;20020;-80
2021/09/15 12:17:59;;;;;;;7.38;3.42;;;29.90;44.70;;;;;;5086489;28;20062;-81
2021/09/15 12:20:42;;;;;;;3.85;2.92;;;30.00;44.90;;;;;;5088891;28;20119;-83
2021/09/15 12:23:10;;;;;;;10.00;3.65;;;30.00;44.20;;;;;;5088635;28;20073;-82
2021/09/15 12:25:36;;;;;;;10.93;3.97;;;29.90;43.80;;;;;;5089049;28;20111;-82
2021/09/15 12:28:03;;;;;;;4.88;3.20;;;29.60;45.10;;;;;;5088251;28;20074;-82
2021/09/15 12:30:29;;;;;;;8.13;2.78;;;29.50;45.50;;;;;;5089231;28;20032;-82
2021/09/15 12:32:57;;;;;;;21.65;4.07;;;29.50;45.30;;;;;;5088895;28;20369;-82
2021/09/15 12:35:33;;;;;;;7.20;3.17;;;29.70;45.50;;;;;;5088768;28;20020;-82
2021/09/15 12:38:01;;;;;;;7.97;3.15;;;29.70;45.90;;;;;;5089081;28;20212;-83
2021/09/15 12:40:27;;;;;;;12.63;3.67;;;29.80;45.20;;;;;;5088406;28;20035;-81
2021/09/15 12:43:13;;;;;;;12.45;4.05;;;29.90;46.20;;;;;;5087715;28;20032;-82
2021/09/15 12:45:38;;;;;;;5.38;3.25;;;29.90;45.60;;;;;;5087498;28;20024;-82
2021/09/15 12:48:13;;;;;;;4.20;3.38;;;29.90;45.90;;;;;;5088700;28;20078;-82
2021/09/15 12:50:44;;;;;;;5.40;2.90;;;29.90;45.80;;;;;;5088139;28;20036;-83
2021/09/15 12:53:12;;;;;;;4.88;2.88;;;30.00;45.50;;;;;;5088962;28;20151;-82
2021/09/15 12:55:47;;;;;;;5.38;3.05;;;30.00;44.90;;;;;;5086866;28;20070;-83